createdAt,value
2018-10-03T00:00:16.683Z,75.39
2018-10-03T00:05:19.829Z,74.71
2018-10-03T00:10:22.937Z,75.12
2018-10-03T00:15:26.044Z,75.03
2018-10-03T00:20:29.191Z,75.31
2018-10-03T00:25:32.279Z,75.54
2018-10-03T00:30:35.354Z,75.62
2018-10-03T00:35:38.470Z,76.00
2018-10-03T00:40:41.560Z,76.37
2018-10-03T00:45:44.675Z,76.36
2018-10-03T00:50:47.717Z,76.37
2018-10-03T00:55:50.806Z,76.33
2018-10-03T01:00:53.916Z,75.63
2018-10-03T01:05:56.994Z,75.80
2018-10-03T01:11:00.072Z,76.06
2018-10-03T01:16:03.272Z,75.26
2018-10-03T01:21:06.399Z,75.00
2018-10-03T01:26:09.483Z,74.80
2018-10-03T01:31:12.682Z,74.26
2018-10-03T01:36:15.775Z,74.80
2018-10-03T01:41:18.887Z,74.26
2018-10-03T01:46:21.936Z,74.25
2018-10-03T01:51:25.015Z,74.46
2018-10-03T01:56:28.210Z,74.41
2018-10-03T02:01:31.314Z,74.74
2018-10-03T02:06:34.419Z,74.67
2018-10-03T02:11:37.481Z,74.64
2018-10-03T02:16:40.571Z,74.43
2018-10-03T02:21:43.655Z,74.17
2018-10-03T02:26:46.767Z,73.41
2018-10-03T02:31:49.883Z,74.13
2018-10-03T02:36:52.987Z,74.33
2018-10-03T02:41:56.068Z,74.31
2018-10-03T02:46:59.175Z,73.44
2018-10-03T02:52:03.093Z,74.14
2018-10-03T02:57:06.475Z,74.10
2018-10-03T03:02:09.560Z,74.03
2018-10-03T03:07:12.709Z,74.04
2018-10-03T03:12:15.862Z,74.21
2018-10-03T03:17:19.146Z,74.06
2018-10-03T03:22:22.274Z,74.19
2018-10-03T03:27:25.355Z,73.84
2018-10-03T03:32:28.423Z,73.84
2018-10-03T03:37:31.527Z,73.89
2018-10-03T03:42:34.583Z,74.41
2018-10-03T03:47:37.648Z,74.02
2018-10-03T03:52:40.719Z,73.46
2018-10-03T03:57:43.867Z,73.19
2018-10-03T04:02:46.997Z,72.26
2018-10-03T04:07:50.071Z,71.87
2018-10-03T04:12:53.150Z,71.69
2018-10-03T04:17:56.195Z,71.81
2018-10-03T04:22:59.271Z,72.32
2018-10-03T04:28:02.350Z,71.66
2018-10-03T04:33:05.423Z,71.68
2018-10-03T04:38:08.475Z,71.77
2018-10-03T04:43:11.558Z,71.68
2018-10-03T04:48:14.639Z,71.94
2018-10-03T04:53:17.732Z,72.05
2018-10-03T04:58:20.789Z,73.00
2018-10-03T05:03:23.863Z,72.60
2018-10-03T05:08:27.040Z,72.68
2018-10-03T05:13:30.157Z,72.69
2018-10-03T05:18:33.256Z,72.23
2018-10-03T05:23:36.403Z,72.39
2018-10-03T05:28:39.498Z,72.24
2018-10-03T05:33:42.675Z,72.87
2018-10-03T05:38:45.819Z,72.88
2018-10-03T05:43:49.139Z,73.51
2018-10-03T05:48:52.332Z,73.29
2018-10-03T05:53:55.491Z,73.32
2018-10-03T05:58:58.587Z,73.62
2018-10-03T06:04:01.737Z,72.78
2018-10-03T06:09:08.906Z,72.44
2018-10-03T06:14:12.097Z,72.63
2018-10-03T06:19:15.267Z,72.52
2018-10-03T06:24:18.674Z,72.25
2018-10-03T06:29:23.075Z,72.17
2018-10-03T06:34:26.698Z,71.79
2018-10-03T06:39:30.093Z,71.74
2018-10-03T06:44:33.536Z,70.75
2018-10-03T06:49:37.824Z,70.59
2018-10-03T06:54:41.038Z,70.77
2018-10-03T06:59:44.252Z,70.22
2018-10-03T07:04:47.556Z,69.15
2018-10-03T07:09:50.779Z,69.25
2018-10-03T07:14:55.127Z,68.49
2018-10-03T07:19:59.426Z,69.20
2018-10-03T07:25:03.534Z,68.22
2018-10-03T07:30:09.144Z,67.76
2018-10-03T07:35:13.229Z,68.06
2018-10-03T07:40:17.926Z,67.61
2018-10-03T07:45:22.484Z,66.72
2018-10-03T07:50:27.423Z,66.50
2018-10-03T07:55:31.937Z,65.44
2018-10-03T08:00:36.657Z,64.83
2018-10-03T08:05:41.175Z,63.80
2018-10-03T08:10:45.369Z,63.06
2018-10-03T08:15:49.800Z,61.71
2018-10-03T08:20:54.294Z,62.34
2018-10-03T08:25:58.711Z,63.52
2018-10-03T08:31:02.830Z,63.76
2018-10-03T08:36:07.024Z,62.11
2018-10-03T08:41:17.507Z,61.73
2018-10-03T08:46:21.880Z,60.50
2018-10-03T08:51:26.783Z,60.38
2018-10-03T08:56:30.888Z,61.57
2018-10-03T09:01:35.115Z,61.26
2018-10-03T09:06:40.586Z,59.98
2018-10-03T09:11:43.887Z,59.25
2018-10-03T09:16:46.963Z,58.15
2018-10-03T09:21:50.250Z,58.79
2018-10-03T09:26:53.436Z,59.02
2018-10-03T09:31:56.636Z,58.62
2018-10-03T09:36:59.811Z,59.04
2018-10-03T09:42:02.967Z,59.18
2018-10-03T09:47:06.365Z,59.94
2018-10-03T09:52:09.432Z,58.75
2018-10-03T09:57:12.641Z,59.11
2018-10-03T10:02:15.751Z,58.08
2018-10-03T10:07:18.891Z,59.77
2018-10-03T10:12:22.063Z,60.44
2018-10-03T10:17:25.227Z,60.70
2018-10-03T10:22:28.359Z,60.79
2018-10-03T10:27:31.543Z,61.37
2018-10-03T10:32:35.023Z,60.17
2018-10-03T10:37:38.139Z,59.08
2018-10-03T10:42:43.782Z,56.86
2018-10-03T10:47:46.988Z,55.81
2018-10-03T10:52:50.219Z,54.62
2018-10-03T10:57:53.367Z,55.25
2018-10-03T11:02:56.590Z,55.46
2018-10-03T11:07:59.757Z,56.23
2018-10-03T11:13:04.062Z,58.73
2018-10-03T11:18:07.349Z,58.83
2018-10-03T11:23:10.759Z,57.11
2018-10-03T11:28:14.075Z,55.92
2018-10-03T11:33:17.504Z,54.39
2018-10-03T11:38:20.859Z,54.18
2018-10-03T11:43:24.089Z,55.12
2018-10-03T11:48:27.273Z,55.17
2018-10-03T11:53:30.444Z,55.49
2018-10-03T11:58:33.767Z,54.16
2018-10-03T12:03:37.444Z,53.49
2018-10-03T12:08:40.848Z,54.33
2018-10-03T12:13:44.067Z,54.64
2018-10-03T12:18:47.278Z,55.96
2018-10-03T12:23:50.479Z,54.10
2018-10-03T12:28:53.571Z,55.09
2018-10-03T12:33:56.803Z,55.48
2018-10-03T12:38:59.952Z,55.02
2018-10-03T12:44:03.197Z,54.55
2018-10-03T12:49:06.336Z,53.76
2018-10-03T12:54:09.588Z,53.72
2018-10-03T12:59:12.896Z,54.15
2018-10-03T13:04:16.147Z,52.15
2018-10-03T13:09:19.409Z,51.40
2018-10-03T13:14:22.625Z,51.33
2018-10-03T13:19:25.814Z,51.71
2018-10-03T13:24:28.921Z,52.77
2018-10-03T13:29:32.052Z,53.05
2018-10-03T13:34:35.289Z,52.86
2018-10-03T13:39:38.634Z,53.20
2018-10-03T13:44:41.920Z,53.85
2018-10-03T13:49:45.154Z,55.45
2018-10-03T13:54:48.282Z,53.69
2018-10-03T13:59:51.433Z,52.45
2018-10-03T14:04:54.541Z,52.13
2018-10-03T14:09:57.663Z,53.78
2018-10-03T14:15:00.787Z,53.26
2018-10-03T14:20:04.205Z,53.66
2018-10-03T14:25:07.372Z,53.61
2018-10-03T14:30:10.495Z,54.12
2018-10-03T14:35:13.941Z,54.14
2018-10-03T14:40:17.247Z,54.62
2018-10-03T14:45:20.396Z,54.43
2018-10-03T14:50:23.573Z,55.66
2018-10-03T14:55:26.696Z,55.19
2018-10-03T15:00:29.964Z,54.12
2018-10-03T15:05:33.155Z,54.13
2018-10-03T15:10:36.432Z,54.03
2018-10-03T15:15:39.581Z,54.37
2018-10-03T15:20:42.751Z,54.10
2018-10-03T15:25:45.840Z,54.85
2018-10-03T15:30:49.322Z,55.74
2018-10-03T15:35:52.384Z,56.31
2018-10-03T15:40:55.634Z,56.46
2018-10-03T15:45:58.787Z,56.93
2018-10-03T15:51:01.986Z,57.38
2018-10-03T15:56:05.156Z,58.41
2018-10-03T16:01:08.338Z,57.76
2018-10-03T16:06:11.390Z,57.84
2018-10-03T16:11:14.570Z,57.70
2018-10-03T16:16:17.677Z,56.94
2018-10-03T16:21:20.889Z,56.97
2018-10-03T16:26:23.988Z,57.01
2018-10-03T16:31:27.136Z,57.76
2018-10-03T16:36:30.300Z,58.21
2018-10-03T16:41:33.474Z,57.92
2018-10-03T16:46:36.745Z,58.03
2018-10-03T16:51:39.955Z,58.63
2018-10-03T16:56:43.103Z,58.93
2018-10-03T17:01:48.232Z,58.90
2018-10-03T17:06:52.639Z,59.09
2018-10-03T17:11:56.852Z,59.96
2018-10-03T17:16:59.996Z,60.15
2018-10-03T17:22:03.652Z,60.82
2018-10-03T17:27:06.832Z,61.24
2018-10-03T17:32:09.902Z,61.47
2018-10-03T17:37:13.012Z,62.49
2018-10-03T17:42:16.336Z,63.37
2018-10-03T17:47:19.524Z,63.02
2018-10-03T17:52:22.675Z,63.48
2018-10-03T17:57:25.908Z,63.78
2018-10-03T18:02:29.225Z,63.40
2018-10-03T18:07:32.376Z,64.19
2018-10-03T18:12:35.572Z,65.20
2018-10-03T18:17:38.823Z,65.64
2018-10-03T18:22:41.992Z,66.25
2018-10-03T18:27:45.190Z,66.16
2018-10-03T18:32:48.423Z,65.40
2018-10-03T18:37:51.628Z,66.14
2018-10-03T18:42:54.811Z,66.58
2018-10-03T18:47:58.055Z,66.88
2018-10-03T18:53:01.280Z,67.60
2018-10-03T18:58:04.548Z,68.28
2018-10-03T19:03:07.708Z,68.45
2018-10-03T19:08:10.868Z,69.33
2018-10-03T19:13:13.988Z,69.35
2018-10-03T19:18:17.098Z,70.21
2018-10-03T19:23:20.143Z,70.30
2018-10-03T19:28:23.239Z,70.13
2018-10-03T19:33:26.336Z,70.95
2018-10-03T19:38:29.454Z,70.69
2018-10-03T19:43:32.667Z,70.79
2018-10-03T19:48:35.799Z,71.00
2018-10-03T19:53:38.803Z,71.21
2018-10-03T19:58:41.891Z,71.01
2018-10-03T20:03:44.969Z,70.84
2018-10-03T20:08:48.043Z,70.64
2018-10-03T20:13:51.188Z,70.61
2018-10-03T20:18:54.227Z,70.76
2018-10-03T20:23:57.299Z,69.92
2018-10-03T20:29:00.383Z,70.01
2018-10-03T20:34:03.507Z,70.24
2018-10-03T20:39:08.210Z,70.15
2018-10-03T20:44:11.281Z,70.25
2018-10-03T20:49:14.372Z,70.39
2018-10-03T20:54:17.511Z,70.68
2018-10-03T20:59:20.558Z,70.42
2018-10-03T21:04:23.667Z,70.35
2018-10-03T21:09:26.762Z,70.84
2018-10-03T21:14:29.851Z,70.34
2018-10-03T21:19:32.939Z,70.85
2018-10-03T21:24:36.019Z,70.48
2018-10-03T21:29:39.347Z,70.48
2018-10-03T21:34:42.406Z,70.09
2018-10-03T21:39:45.470Z,70.24
2018-10-03T21:44:48.583Z,70.38
2018-10-03T21:49:51.709Z,70.09
2018-10-03T22:02:53.586Z,71.27
2018-10-03T22:07:56.649Z,71.25
2018-10-03T22:12:59.735Z,70.68
2018-10-03T22:18:02.796Z,70.55
2018-10-03T22:23:06.381Z,70.67
2018-10-03T22:28:09.379Z,71.15
2018-10-03T22:33:12.415Z,70.71
2018-10-03T22:38:15.513Z,70.53
2018-10-03T22:43:18.688Z,70.36
2018-10-03T22:48:21.767Z,70.14
2018-10-03T22:53:24.818Z,69.89
2018-10-03T22:58:27.881Z,69.75
2018-10-03T23:03:30.963Z,69.15
2018-10-03T23:14:14.666Z,69.14
2018-10-03T23:19:17.728Z,68.70
2018-10-03T23:24:20.783Z,69.08
2018-10-03T23:29:23.850Z,69.35
2018-10-03T23:34:26.928Z,70.02
2018-10-03T23:39:30.007Z,69.82
2018-10-03T23:44:33.071Z,70.01
2018-10-03T23:49:36.140Z,69.83
2018-10-03T23:54:39.298Z,70.05
2018-10-03T23:59:42.343Z,69.54
